createdAt,value
2019-03-25T00:00:10.131Z,13.48
2019-03-25T00:02:39.307Z,13.32
2019-03-25T00:05:08.482Z,13.20
2019-03-25T00:07:37.648Z,12.95
2019-03-25T00:10:07.493Z,13.30
2019-03-25T00:12:36.667Z,12.58
2019-03-25T00:15:07.719Z,13.80
2019-03-25T00:17:36.866Z,13.08
2019-03-25T00:20:07.169Z,12.93
2019-03-25T00:22:36.344Z,13.35
2019-03-25T00:25:06.746Z,12.95
2019-03-25T00:27:35.915Z,13.20
2019-03-25T00:30:07.059Z,13.22
2019-03-25T00:32:36.234Z,13.18
2019-03-25T00:35:06.390Z,13.83
2019-03-25T00:37:35.532Z,14.25
2019-03-25T00:40:05.918Z,12.95
2019-03-25T00:42:35.117Z,13.65
2019-03-25T00:45:05.792Z,13.48
2019-03-25T00:47:34.875Z,13.40
2019-03-25T00:50:05.939Z,12.98
2019-03-25T00:52:35.090Z,12.95
2019-03-25T00:55:05.098Z,13.25
2019-03-25T00:57:34.300Z,12.88
2019-03-25T01:00:04.595Z,13.55
2019-03-25T01:02:33.735Z,15.13
2019-03-25T01:05:02.909Z,14.40
2019-03-25T01:07:32.182Z,14.40
2019-03-25T01:10:01.354Z,14.18
2019-03-25T01:12:30.890Z,14.15
2019-03-25T01:15:00.411Z,14.23
2019-03-25T01:17:29.656Z,14.30
2019-03-25T01:19:58.852Z,14.00
2019-03-25T01:22:27.999Z,14.15
2019-03-25T01:25:01.746Z,15.45
2019-03-25T01:27:28.015Z,15.13
2019-03-25T01:29:57.182Z,14.35
2019-03-25T01:32:26.329Z,15.05
2019-03-25T01:34:55.478Z,15.03
2019-03-25T01:37:24.632Z,14.80
2019-03-25T01:39:53.826Z,14.93
2019-03-25T01:42:22.989Z,15.25
2019-03-25T01:44:52.134Z,14.73
2019-03-25T01:47:21.292Z,15.25
2019-03-25T01:49:50.472Z,14.95
2019-03-25T01:52:19.641Z,15.40
2019-03-25T01:54:48.794Z,14.85
2019-03-25T01:57:17.936Z,15.05
2019-03-25T01:59:47.080Z,15.68
2019-03-25T02:02:16.236Z,16.07
2019-03-25T02:04:45.402Z,15.13
2019-03-25T02:07:14.580Z,15.58
2019-03-25T02:09:43.729Z,16.17
2019-03-25T02:12:12.902Z,15.45
2019-03-25T02:14:42.067Z,15.28
2019-03-25T02:17:11.231Z,15.08
2019-03-25T02:19:40.411Z,15.68
2019-03-25T02:22:09.572Z,15.90
2019-03-25T02:24:38.720Z,15.18
2019-03-25T02:27:07.866Z,14.98
2019-03-25T02:29:37.019Z,15.08
2019-03-25T02:32:06.192Z,15.38
2019-03-25T02:34:35.366Z,16.10
2019-03-25T02:37:04.734Z,15.35
2019-03-25T02:39:34.013Z,15.75
2019-03-25T02:42:03.161Z,15.78
2019-03-25T02:44:32.305Z,15.32
2019-03-25T02:47:01.452Z,15.23
2019-03-25T02:49:30.664Z,14.38
2019-03-25T02:51:59.833Z,14.60
2019-03-25T02:54:29.040Z,14.50
2019-03-25T02:56:58.177Z,15.35
2019-03-25T02:59:27.346Z,14.73
2019-03-25T03:01:56.729Z,14.63
2019-03-25T03:04:25.876Z,15.60
2019-03-25T03:06:55.043Z,15.50
2019-03-25T03:09:24.223Z,15.43
2019-03-25T03:11:53.401Z,14.87
2019-03-25T03:14:22.601Z,15.25
2019-03-25T03:16:51.740Z,14.25
2019-03-25T03:19:40.312Z,14.58
2019-03-25T03:22:09.448Z,15.03
2019-03-25T03:24:38.581Z,15.20
2019-03-25T03:27:07.739Z,15.32
2019-03-25T03:29:37.189Z,15.18
2019-03-25T03:32:06.434Z,15.78
2019-03-25T03:34:35.697Z,14.35
2019-03-25T03:37:04.835Z,14.50
2019-03-25T03:39:33.987Z,15.28
2019-03-25T03:42:03.561Z,14.07
2019-03-25T03:44:32.713Z,14.13
2019-03-25T03:47:01.863Z,15.08
2019-03-25T03:49:31.014Z,14.40
2019-03-25T03:52:00.167Z,13.83
2019-03-25T03:54:29.325Z,13.68
2019-03-25T03:56:58.475Z,13.85
2019-03-25T03:59:27.605Z,13.53
2019-03-25T04:01:56.752Z,13.28
2019-03-25T04:04:25.899Z,13.43
2019-03-25T04:06:55.078Z,14.45
2019-03-25T04:09:24.225Z,14.20
2019-03-25T04:11:53.370Z,14.07
2019-03-25T04:14:22.510Z,13.65
2019-03-25T04:16:52.042Z,14.20
2019-03-25T04:19:21.186Z,13.43
2019-03-25T04:21:50.333Z,14.00
2019-03-25T04:24:19.480Z,12.90
2019-03-25T04:26:48.618Z,13.10
2019-03-25T04:29:17.766Z,13.62
2019-03-25T04:31:46.916Z,13.58
2019-03-25T04:34:16.058Z,12.75
2019-03-25T04:36:45.210Z,13.62
2019-03-25T04:39:14.346Z,13.80
2019-03-25T04:41:43.527Z,14.03
2019-03-25T04:44:12.663Z,13.80
2019-03-25T04:46:41.806Z,14.05
2019-03-25T04:49:10.970Z,13.32
2019-03-25T04:51:40.108Z,13.50
2019-03-25T04:54:09.250Z,12.75
2019-03-25T04:56:39.969Z,13.38
2019-03-25T04:59:09.438Z,13.70
2019-03-25T05:01:38.590Z,12.90
2019-03-25T05:04:07.737Z,13.28
2019-03-25T05:06:36.911Z,14.15
2019-03-25T05:09:06.715Z,12.35
2019-03-25T05:11:35.856Z,14.00
2019-03-25T05:14:05.006Z,13.35
2019-03-25T05:16:34.175Z,13.43
2019-03-25T05:19:03.333Z,12.37
2019-03-25T05:21:32.475Z,13.15
2019-03-25T05:24:01.627Z,13.80
2019-03-25T05:26:30.769Z,13.10
2019-03-25T05:28:59.911Z,13.35
2019-03-25T05:31:29.052Z,12.60
2019-03-25T05:33:58.218Z,13.43
2019-03-25T05:36:27.377Z,13.08
2019-03-25T05:38:56.552Z,12.75
2019-03-25T05:41:25.690Z,12.47
2019-03-25T05:43:54.830Z,12.05
2019-03-25T05:46:24.012Z,12.78
2019-03-25T05:48:53.160Z,13.20
2019-03-25T05:51:22.302Z,13.08
2019-03-25T05:53:51.455Z,13.05
2019-03-25T05:56:20.631Z,12.47
2019-03-25T05:58:49.780Z,13.48
2019-03-25T06:01:19.188Z,12.75
2019-03-25T06:03:48.343Z,12.93
2019-03-25T06:06:17.522Z,13.43
2019-03-25T06:08:46.662Z,12.60
2019-03-25T06:11:15.807Z,13.32
2019-03-25T06:13:44.955Z,12.85
2019-03-25T06:16:14.099Z,12.88
2019-03-25T06:18:43.236Z,13.43
2019-03-25T06:21:12.378Z,13.70
2019-03-25T06:23:41.529Z,13.18
2019-03-25T06:26:10.672Z,13.05
2019-03-25T06:28:39.919Z,13.18
2019-03-25T06:31:09.473Z,13.45
2019-03-25T06:33:38.704Z,13.58
2019-03-25T06:36:07.841Z,13.00
2019-03-25T06:38:37.005Z,13.22
2019-03-25T06:41:12.366Z,14.33
2019-03-25T06:43:41.512Z,14.40
2019-03-25T06:46:11.040Z,13.85
2019-03-25T06:48:40.237Z,13.38
2019-03-25T06:51:10.050Z,15.78
2019-03-25T06:53:39.223Z,16.67
2019-03-25T06:56:08.496Z,15.60
2019-03-25T06:58:57.074Z,14.60
2019-03-25T07:01:26.221Z,14.93
2019-03-25T07:03:55.483Z,14.43
2019-03-25T07:06:25.081Z,13.95
2019-03-25T07:08:54.228Z,14.50
2019-03-25T07:11:23.380Z,14.98
2019-03-25T07:13:52.525Z,14.10
2019-03-25T07:16:21.697Z,13.83
2019-03-25T07:18:50.855Z,14.93
2019-03-25T07:21:20.637Z,13.05
2019-03-25T07:23:50.033Z,13.80
2019-03-25T07:26:19.158Z,13.55
2019-03-25T07:28:48.308Z,14.03
2019-03-25T07:31:17.474Z,13.93
2019-03-25T07:33:46.614Z,13.80
2019-03-25T07:36:15.747Z,13.20
2019-03-25T07:38:44.902Z,14.55
2019-03-25T07:41:14.083Z,12.55
2019-03-25T07:43:43.226Z,12.73
2019-03-25T07:46:12.360Z,13.28
2019-03-25T07:48:41.520Z,13.65
2019-03-25T07:51:10.664Z,13.45
2019-03-25T07:53:39.825Z,12.33
2019-03-25T07:56:08.956Z,12.90
2019-03-25T07:58:38.091Z,13.25
2019-03-25T08:01:07.250Z,12.18
2019-03-25T08:03:36.394Z,12.58
2019-03-25T08:06:05.544Z,11.75
2019-03-25T08:08:34.684Z,13.05
2019-03-25T08:11:03.826Z,12.70
2019-03-25T08:13:32.968Z,13.55
2019-03-25T08:16:03.456Z,12.13
2019-03-25T08:18:32.833Z,12.45
2019-03-25T08:21:01.968Z,12.93
2019-03-25T08:23:31.134Z,12.55
2019-03-25T08:26:00.276Z,12.55
2019-03-25T08:28:29.415Z,12.73
2019-03-25T08:30:58.595Z,12.28
2019-03-25T08:33:27.725Z,13.15
2019-03-25T08:35:56.871Z,13.43
2019-03-25T08:38:26.028Z,12.30
2019-03-25T08:40:55.171Z,12.40
2019-03-25T08:43:24.339Z,12.13
2019-03-25T08:45:53.486Z,13.18
2019-03-25T08:48:22.662Z,11.97
2019-03-25T08:50:51.836Z,12.05
2019-03-25T08:53:21.139Z,12.10
2019-03-25T08:55:50.292Z,12.95
2019-03-25T08:58:19.490Z,11.75
2019-03-25T09:00:48.634Z,12.53
2019-03-25T09:03:17.785Z,12.30
2019-03-25T09:05:46.941Z,12.37
2019-03-25T09:08:16.156Z,11.75
2019-03-25T09:10:45.404Z,12.58
2019-03-25T09:13:14.711Z,11.45
2019-03-25T09:15:44.452Z,12.55
2019-03-25T09:18:13.584Z,12.15
2019-03-25T09:20:43.134Z,11.35
2019-03-25T09:23:12.487Z,12.28
2019-03-25T09:25:41.631Z,11.60
2019-03-25T09:28:10.772Z,11.22
2019-03-25T09:30:56.668Z,11.80
2019-03-25T09:33:25.802Z,11.20
2019-03-25T09:35:55.150Z,12.37
2019-03-25T09:38:24.418Z,11.85
2019-03-25T09:40:53.558Z,11.50
2019-03-25T09:43:22.695Z,11.03
2019-03-25T09:45:51.872Z,11.48
2019-03-25T09:48:21.045Z,11.10
2019-03-25T09:50:50.403Z,11.08
2019-03-25T09:53:19.580Z,11.50
2019-03-25T09:55:48.711Z,11.45
2019-03-25T09:58:17.844Z,11.43
2019-03-25T10:00:46.999Z,11.00
2019-03-25T10:03:16.135Z,11.48
2019-03-25T10:05:45.302Z,10.88
2019-03-25T10:08:14.423Z,10.78
2019-03-25T10:10:43.586Z,11.45
2019-03-25T10:13:12.864Z,10.78
2019-03-25T10:15:42.001Z,10.93
2019-03-25T10:18:11.136Z,10.68
2019-03-25T10:20:40.469Z,10.95
2019-03-25T10:23:09.612Z,10.35
2019-03-25T10:25:38.776Z,10.72
2019-03-25T10:28:08.070Z,10.85
2019-03-25T10:30:37.197Z,10.95
2019-03-25T10:33:06.332Z,11.43
2019-03-25T10:35:35.469Z,10.90
2019-03-25T10:38:04.661Z,11.25
2019-03-25T10:40:33.798Z,11.08
2019-03-25T10:43:02.942Z,11.18
2019-03-25T10:45:32.075Z,11.30
2019-03-25T10:48:01.535Z,10.60
2019-03-25T10:50:30.673Z,11.08
2019-03-25T10:52:59.985Z,10.08
2019-03-25T10:55:29.133Z,10.08
2019-03-25T10:57:58.316Z,11.08
2019-03-25T11:00:27.592Z,10.65
2019-03-25T11:02:56.724Z,10.75
2019-03-25T11:05:26.328Z,11.20
2019-03-25T11:07:55.468Z,10.88
2019-03-25T11:10:24.624Z,11.20
2019-03-25T11:12:53.796Z,11.43
2019-03-25T11:15:23.014Z,11.08
2019-03-25T11:17:52.165Z,11.20
2019-03-25T11:20:22.188Z,11.80
2019-03-25T11:22:51.319Z,10.35
2019-03-25T11:25:20.457Z,10.50
2019-03-25T11:27:54.400Z,11.25
2019-03-25T11:30:31.168Z,11.22
2019-03-25T11:33:00.304Z,11.25
2019-03-25T11:35:29.454Z,12.23
2019-03-25T11:37:58.603Z,11.28
2019-03-25T11:40:27.732Z,11.15
2019-03-25T11:42:56.885Z,11.22
2019-03-25T11:45:26.055Z,12.05
2019-03-25T11:47:55.361Z,11.08
2019-03-25T11:50:24.639Z,11.43
2019-03-25T11:52:54.057Z,11.78
2019-03-25T11:55:23.227Z,11.50
2019-03-25T11:57:52.521Z,11.08
2019-03-25T12:00:23.375Z,11.25
2019-03-25T12:02:52.757Z,11.73
2019-03-25T12:05:21.924Z,10.78
2019-03-25T12:07:51.052Z,11.05
2019-03-25T12:10:20.196Z,11.10
2019-03-25T12:12:49.342Z,10.72
2019-03-25T12:15:19.485Z,10.68
2019-03-25T12:17:48.624Z,11.28
2019-03-25T12:20:17.784Z,11.20
2019-03-25T12:22:46.912Z,10.53
2019-03-25T12:25:16.052Z,10.50
2019-03-25T12:27:45.202Z,10.25
2019-03-25T12:30:14.345Z,10.68
2019-03-25T12:32:43.507Z,10.80
2019-03-25T12:35:12.649Z,10.20
2019-03-25T12:37:41.821Z,10.75
2019-03-25T12:40:10.950Z,10.43
2019-03-25T12:42:40.089Z,10.43
2019-03-25T12:45:09.245Z,10.75
2019-03-25T12:47:38.377Z,11.15
2019-03-25T12:50:07.902Z,10.03
2019-03-25T12:52:37.066Z,10.72
2019-03-25T12:55:06.893Z,10.03
2019-03-25T12:57:36.057Z,10.68
2019-03-25T13:00:07.504Z,10.32
2019-03-25T13:02:36.652Z,10.60
2019-03-25T13:05:08.842Z,10.30
2019-03-25T13:07:37.981Z,10.65
2019-03-25T13:10:07.597Z,10.38
2019-03-25T13:12:36.743Z,10.90
2019-03-25T13:15:08.043Z,11.33
2019-03-25T13:17:37.289Z,10.40
2019-03-25T13:20:06.893Z,10.15
2019-03-25T13:22:36.039Z,9.93
2019-03-25T13:25:05.843Z,10.30
2019-03-25T13:27:34.980Z,10.23
2019-03-25T13:30:08.702Z,10.50
2019-03-25T13:32:37.974Z,11.20
2019-03-25T13:35:10.654Z,10.08
2019-03-25T13:37:39.830Z,10.90
2019-03-25T13:40:09.160Z,10.48
2019-03-25T13:42:38.483Z,10.55
2019-03-25T13:45:07.630Z,11.18
2019-03-25T13:47:36.770Z,10.50
2019-03-25T13:50:07.098Z,10.90
2019-03-25T13:52:36.238Z,10.72
2019-03-25T13:55:06.642Z,10.53
2019-03-25T13:57:35.774Z,10.30
2019-03-25T14:00:07.048Z,11.05
2019-03-25T14:02:36.225Z,10.68
2019-03-25T14:05:06.230Z,11.45
2019-03-25T14:07:35.465Z,11.73
2019-03-25T14:10:08.038Z,11.43
2019-03-25T14:12:37.177Z,10.88
2019-03-25T14:15:08.054Z,11.65
2019-03-25T14:17:37.204Z,10.80
2019-03-25T14:20:08.578Z,11.18
2019-03-25T14:22:37.745Z,10.45
2019-03-25T14:25:06.867Z,11.33
2019-03-25T14:27:36.016Z,10.30
2019-03-25T14:30:14.361Z,11.25
2019-03-25T14:32:38.695Z,11.38
2019-03-25T14:35:07.844Z,10.82
2019-03-25T14:37:37.007Z,10.32
2019-03-25T14:40:08.165Z,11.08
2019-03-25T14:42:37.345Z,11.60
2019-03-25T14:45:07.887Z,11.22
2019-03-25T14:47:37.039Z,11.68
2019-03-25T14:50:07.585Z,10.80
2019-03-25T14:52:36.719Z,12.00
2019-03-25T14:55:06.442Z,10.75
2019-03-25T14:57:35.592Z,10.60
2019-03-25T15:00:07.812Z,11.28
2019-03-25T15:02:36.949Z,11.45
2019-03-25T15:05:07.713Z,11.40
2019-03-25T15:07:37.106Z,11.08
2019-03-25T15:10:08.982Z,11.43
2019-03-25T15:12:38.190Z,11.45
2019-03-25T15:15:08.158Z,11.28
2019-03-25T15:17:37.475Z,11.08
2019-03-25T15:20:10.098Z,11.65
2019-03-25T15:22:39.454Z,11.70
2019-03-25T15:25:09.369Z,11.18
2019-03-25T15:27:38.499Z,11.50
2019-03-25T15:30:10.632Z,11.50
2019-03-25T15:32:39.777Z,11.43
2019-03-25T15:35:09.026Z,12.05
2019-03-25T15:37:38.167Z,11.25
2019-03-25T15:40:11.208Z,11.75
2019-03-25T15:42:40.331Z,11.30
2019-03-25T15:45:09.543Z,11.48
2019-03-25T15:47:40.003Z,11.35
2019-03-25T15:50:10.313Z,11.25
2019-03-25T15:52:39.929Z,10.95
2019-03-25T15:55:09.155Z,10.65
2019-03-25T15:57:39.767Z,10.80
2019-03-25T16:00:16.551Z,10.28
2019-03-25T16:02:45.731Z,11.60
2019-03-25T16:05:15.778Z,10.78
2019-03-25T16:07:44.919Z,10.45
2019-03-25T16:10:18.292Z,10.50
2019-03-25T16:12:47.896Z,10.63
2019-03-25T16:15:35.925Z,10.23
2019-03-25T16:18:07.384Z,10.45
2019-03-25T16:20:36.568Z,10.53
2019-03-25T16:23:05.696Z,9.90
2019-03-25T16:25:34.833Z,9.98
2019-03-25T16:28:04.141Z,10.35
2019-03-25T16:30:33.427Z,9.48
2019-03-25T16:33:02.564Z,9.83
2019-03-25T16:35:31.706Z,9.43
2019-03-25T16:38:00.840Z,10.00
2019-03-25T16:40:30.481Z,9.85
2019-03-25T16:42:59.618Z,9.83
2019-03-25T16:45:28.754Z,10.60
2019-03-25T16:47:57.903Z,10.05
2019-03-25T16:50:27.050Z,9.43
2019-03-25T16:52:56.261Z,10.13
2019-03-25T16:55:25.438Z,10.10
2019-03-25T16:57:54.597Z,10.05
2019-03-25T17:00:27.699Z,9.40
2019-03-25T17:02:54.606Z,9.48
2019-03-25T17:05:23.920Z,10.00
2019-03-25T17:07:53.084Z,9.83
2019-03-25T17:10:22.217Z,9.70
2019-03-25T17:12:51.386Z,8.60
2019-03-25T17:15:20.510Z,9.05
2019-03-25T17:17:49.656Z,8.70
2019-03-25T17:20:18.905Z,8.90
2019-03-25T17:22:48.080Z,8.70
2019-03-25T17:25:17.204Z,8.53
2019-03-25T17:27:46.419Z,9.55
2019-03-25T17:30:16.390Z,9.10
2019-03-25T17:32:45.532Z,8.98
2019-03-25T17:35:14.673Z,8.35
2019-03-25T17:37:43.821Z,8.98
2019-03-25T17:40:13.051Z,8.80
2019-03-25T17:42:42.227Z,8.63
2019-03-25T17:45:11.437Z,9.43
2019-03-25T17:47:40.781Z,8.83
2019-03-25T17:50:10.729Z,8.68
2019-03-25T17:52:39.872Z,8.50
2019-03-25T17:55:09.007Z,9.25
2019-03-25T17:57:38.184Z,8.78
2019-03-25T18:00:12.140Z,8.43
2019-03-25T18:02:41.280Z,8.30
2019-03-25T18:05:10.426Z,8.08
2019-03-25T18:07:39.575Z,8.73
2019-03-25T18:10:09.189Z,8.03
2019-03-25T18:12:39.239Z,8.28
2019-03-25T18:15:11.247Z,7.80
2019-03-25T18:17:40.385Z,7.90
2019-03-25T18:20:18.036Z,7.53
2019-03-25T18:22:40.567Z,7.95
2019-03-25T18:25:09.696Z,7.47
2019-03-25T18:27:38.830Z,7.40
2019-03-25T18:30:08.297Z,7.35
2019-03-25T18:32:37.435Z,7.80
2019-03-25T18:35:07.138Z,7.97
2019-03-25T18:37:36.287Z,7.60
2019-03-25T18:40:05.409Z,7.92
2019-03-25T18:42:34.588Z,6.72
2019-03-25T18:45:04.303Z,7.20
2019-03-25T18:47:33.449Z,7.33
2019-03-25T18:50:02.596Z,7.50
2019-03-25T18:52:31.730Z,7.35
2019-03-25T18:55:00.866Z,8.00
2019-03-25T18:57:30.000Z,7.17
2019-03-25T18:59:59.163Z,7.00
2019-03-25T19:02:28.305Z,7.10
2019-03-25T19:04:57.431Z,7.37
2019-03-25T19:07:26.590Z,7.00
2019-03-25T19:09:55.732Z,7.03
2019-03-25T19:12:24.917Z,7.30
2019-03-25T19:14:54.054Z,6.75
2019-03-25T19:17:23.253Z,7.78
2019-03-25T19:19:52.417Z,8.55
2019-03-25T19:22:21.561Z,7.85
2019-03-25T19:24:50.708Z,7.62
2019-03-25T19:27:19.837Z,7.87
2019-03-25T19:29:49.256Z,8.10
2019-03-25T19:32:18.382Z,8.40
2019-03-25T19:34:47.782Z,7.05
2019-03-25T19:37:17.038Z,7.60
2019-03-25T19:39:46.198Z,7.75
2019-03-25T19:42:15.371Z,7.87
2019-03-25T19:44:44.478Z,8.10
2019-03-25T19:47:13.676Z,7.37
2019-03-25T19:49:42.759Z,8.13
2019-03-25T19:52:11.971Z,7.83
2019-03-25T19:54:41.134Z,7.10
2019-03-25T19:57:10.301Z,7.55
2019-03-25T19:59:39.402Z,8.20
2019-03-25T20:02:18.368Z,7.58
2019-03-25T20:04:39.450Z,7.72
2019-03-25T20:07:08.743Z,8.10
2019-03-25T20:09:37.885Z,8.08
2019-03-25T20:12:07.028Z,8.30
2019-03-25T20:14:36.331Z,8.20
2019-03-25T20:17:05.525Z,7.85
2019-03-25T20:19:34.674Z,8.70
2019-03-25T20:22:04.605Z,8.23
2019-03-25T20:24:33.876Z,20.70
2019-03-25T20:27:03.593Z,15.30
2019-03-25T20:29:32.833Z,14.05
2019-03-25T20:32:01.982Z,14.23
2019-03-25T20:34:31.146Z,13.83
2019-03-25T20:37:00.282Z,12.60
2019-03-25T20:39:29.452Z,13.15
2019-03-25T20:41:58.855Z,12.50
2019-03-25T20:44:28.066Z,12.20
2019-03-25T20:46:57.270Z,12.88
2019-03-25T20:49:26.382Z,12.75
2019-03-25T20:51:56.099Z,11.75
2019-03-25T20:54:25.263Z,11.75
2019-03-25T20:56:54.404Z,13.00
2019-03-25T20:59:23.638Z,23.70
2019-03-25T21:01:52.723Z,29.80
2019-03-25T21:04:21.863Z,32.88
2019-03-25T21:06:54.399Z,32.90
2019-03-25T21:09:22.124Z,31.23
2019-03-25T21:11:51.358Z,31.77
2019-03-25T21:14:20.721Z,31.00
2019-03-25T21:16:49.891Z,31.68
2019-03-25T21:19:19.042Z,31.85
2019-03-25T21:21:48.200Z,32.40
2019-03-25T21:24:17.387Z,32.17
2019-03-25T21:26:46.478Z,31.93
2019-03-25T21:29:15.611Z,31.62
2019-03-25T21:31:44.758Z,32.88
2019-03-25T21:34:13.894Z,32.60
2019-03-25T21:36:43.248Z,31.27
2019-03-25T21:39:12.588Z,31.35
2019-03-25T21:41:41.749Z,32.40
2019-03-25T21:44:10.900Z,29.87
2019-03-25T21:46:40.042Z,29.92
2019-03-25T21:49:09.281Z,29.32
2019-03-25T21:51:38.447Z,29.80
2019-03-25T21:54:07.585Z,29.27
2019-03-25T21:56:36.730Z,28.52
2019-03-25T21:59:05.921Z,28.17
2019-03-25T22:01:35.100Z,27.67
2019-03-25T22:04:04.311Z,27.90
2019-03-25T22:06:33.453Z,27.37
2019-03-25T22:09:02.870Z,25.68
2019-03-25T22:11:32.057Z,25.48
2019-03-25T22:14:01.337Z,26.73
2019-03-25T22:16:30.478Z,26.70
2019-03-25T22:19:00.393Z,24.82
2019-03-25T22:21:29.524Z,24.43
2019-03-25T22:23:58.675Z,24.55
2019-03-25T22:26:27.868Z,23.60
2019-03-25T22:28:57.023Z,23.18
2019-03-25T22:31:26.199Z,24.00
2019-03-25T22:33:55.326Z,23.65
2019-03-25T22:36:24.469Z,22.62
2019-03-25T22:38:53.620Z,23.90
2019-03-25T22:41:22.766Z,21.97
2019-03-25T22:43:51.911Z,21.80
2019-03-25T22:46:21.054Z,22.27
2019-03-25T22:48:50.198Z,20.75
2019-03-25T22:51:19.744Z,21.90
2019-03-25T22:53:48.886Z,20.88
2019-03-25T22:56:18.030Z,20.48
2019-03-25T22:58:47.249Z,20.10
2019-03-25T23:01:16.449Z,20.48
2019-03-25T23:03:45.781Z,19.12
2019-03-25T23:06:14.938Z,20.23
2019-03-25T23:08:44.209Z,19.77
2019-03-25T23:11:13.378Z,20.25
2019-03-25T23:13:42.517Z,18.37
2019-03-25T23:16:11.670Z,18.80
2019-03-25T23:18:40.822Z,19.52
2019-03-25T23:21:09.983Z,18.90
2019-03-25T23:23:39.159Z,18.23
2019-03-25T23:26:08.303Z,17.80
2019-03-25T23:28:37.451Z,17.17
2019-03-25T23:31:06.591Z,18.27
2019-03-25T23:33:35.871Z,17.10
2019-03-25T23:36:05.010Z,17.90
2019-03-25T23:38:34.263Z,17.32
2019-03-25T23:41:03.567Z,17.20
2019-03-25T23:43:32.699Z,17.55
2019-03-25T23:46:01.855Z,17.30
2019-03-25T23:48:30.988Z,16.23
2019-03-25T23:51:00.224Z,17.05
2019-03-25T23:53:29.391Z,16.07
2019-03-25T23:55:58.519Z,16.30
2019-03-25T23:58:27.663Z,15.90
